createdAt,value
2019-04-13T00:00:29.069Z,12.54
2019-04-13T00:02:57.687Z,12.28
2019-04-13T00:05:44.447Z,12.32
2019-04-13T00:08:16.623Z,12.47
2019-04-13T00:10:55.775Z,12.46
2019-04-13T00:13:24.184Z,12.45
2019-04-13T00:15:52.673Z,12.45
2019-04-13T00:18:21.279Z,12.47
2019-04-13T00:20:49.675Z,12.44
2019-04-13T00:23:18.286Z,12.47
2019-04-13T00:25:46.783Z,12.45
2019-04-13T00:28:15.270Z,12.48
2019-04-13T00:30:43.768Z,12.48
2019-04-13T00:33:12.263Z,12.31
2019-04-13T00:35:40.879Z,12.35
2019-04-13T00:38:09.478Z,12.46
2019-04-13T00:40:37.898Z,12.56
2019-04-13T00:43:06.395Z,12.47
2019-04-13T00:45:34.942Z,12.46
2019-04-13T00:48:03.505Z,12.42
2019-04-13T00:50:31.940Z,12.49
2019-04-13T00:53:00.535Z,12.46
2019-04-13T00:55:29.151Z,12.47
2019-04-13T00:57:57.569Z,12.43
2019-04-13T01:00:26.074Z,12.36
2019-04-13T01:02:54.726Z,12.23
2019-04-13T01:05:23.233Z,12.17
2019-04-13T01:07:51.856Z,12.03
2019-04-13T01:10:20.356Z,11.95
2019-04-13T01:12:48.850Z,11.93
2019-04-13T01:15:17.673Z,12.04
2019-04-13T01:17:46.316Z,12.05
2019-04-13T01:20:14.805Z,12.01
2019-04-13T01:22:43.330Z,11.95
2019-04-13T01:25:11.722Z,11.93
2019-04-13T01:27:40.322Z,12.13
2019-04-13T01:30:09.125Z,12.16
2019-04-13T01:32:37.532Z,11.96
2019-04-13T01:35:06.368Z,11.98
2019-04-13T01:37:35.346Z,12.01
2019-04-13T01:40:04.473Z,12.16
2019-04-13T01:42:32.961Z,12.38
2019-04-13T01:45:01.680Z,12.40
2019-04-13T01:47:30.275Z,12.28
2019-04-13T01:49:58.792Z,12.07
2019-04-13T01:52:27.357Z,12.03
2019-04-13T01:54:55.869Z,12.23
2019-04-13T01:57:24.391Z,12.28
2019-04-13T01:59:52.998Z,12.25
2019-04-13T02:02:39.976Z,12.26
2019-04-13T02:05:26.878Z,12.35
2019-04-13T02:08:17.806Z,12.25
2019-04-13T02:10:47.556Z,12.19
2019-04-13T02:13:16.096Z,12.07
2019-04-13T02:15:44.582Z,12.28
2019-04-13T02:18:13.212Z,12.39
2019-04-13T02:20:41.598Z,12.35
2019-04-13T02:23:10.120Z,12.35
2019-04-13T02:25:40.843Z,12.37
2019-04-13T02:28:09.373Z,12.28
2019-04-13T02:30:37.959Z,12.30
2019-04-13T02:33:06.522Z,12.17
2019-04-13T02:35:36.830Z,12.07
2019-04-13T02:38:05.655Z,12.07
2019-04-13T02:40:34.745Z,12.19
2019-04-13T02:43:03.660Z,12.31
2019-04-13T02:45:32.287Z,12.14
2019-04-13T02:48:00.693Z,12.21
2019-04-13T02:50:29.206Z,12.33
2019-04-13T02:52:57.757Z,12.30
2019-04-13T02:55:26.256Z,12.24
2019-04-13T02:57:54.913Z,12.30
2019-04-13T03:00:23.514Z,12.32
2019-04-13T03:02:52.344Z,12.34
2019-04-13T03:05:20.789Z,12.39
2019-04-13T03:07:49.814Z,12.39
2019-04-13T03:10:18.405Z,12.38
2019-04-13T03:12:46.817Z,12.34
2019-04-13T03:15:15.517Z,12.26
2019-04-13T03:17:58.130Z,11.98
2019-04-13T03:20:28.562Z,11.99
2019-04-13T03:22:57.094Z,11.92
2019-04-13T03:25:25.632Z,12.17
2019-04-13T03:27:54.376Z,12.28
2019-04-13T03:30:32.694Z,12.27
2019-04-13T03:33:01.329Z,12.27
2019-04-13T03:35:29.823Z,12.21
2019-04-13T03:37:58.413Z,12.22
2019-04-13T03:40:27.044Z,12.27
2019-04-13T03:42:55.573Z,12.26
2019-04-13T03:45:24.117Z,12.28
2019-04-13T03:47:52.638Z,12.16
2019-04-13T03:50:21.181Z,12.02
2019-04-13T03:52:49.686Z,12.16
2019-04-13T03:55:18.299Z,12.20
2019-04-13T03:57:46.985Z,12.18
2019-04-13T04:00:16.038Z,12.19
2019-04-13T04:02:44.558Z,12.16
2019-04-13T04:05:13.376Z,12.12
2019-04-13T04:07:41.983Z,12.08
2019-04-13T04:10:10.707Z,12.08
2019-04-13T04:12:39.322Z,12.00
2019-04-13T04:15:07.939Z,12.18
2019-04-13T04:17:36.533Z,12.29
2019-04-13T04:20:05.032Z,12.23
2019-04-13T04:22:33.609Z,12.24
2019-04-13T04:25:02.041Z,12.34
2019-04-13T04:27:30.462Z,12.31
2019-04-13T04:29:59.085Z,12.33
2019-04-13T04:32:27.602Z,12.25
2019-04-13T04:34:56.128Z,12.29
2019-04-13T04:37:24.745Z,12.33
2019-04-13T04:39:55.420Z,12.30
2019-04-13T04:42:23.922Z,12.18
2019-04-13T04:44:52.890Z,12.12
2019-04-13T04:47:21.448Z,12.07
2019-04-13T04:49:49.998Z,12.23
2019-04-13T04:52:18.517Z,12.20
2019-04-13T04:54:47.021Z,12.21
2019-04-13T04:57:15.546Z,12.23
2019-04-13T04:59:44.085Z,12.24
2019-04-13T05:02:12.601Z,12.23
2019-04-13T05:04:41.120Z,12.23
2019-04-13T05:07:09.625Z,12.24
2019-04-13T05:09:38.153Z,12.30
2019-04-13T05:12:06.543Z,12.36
2019-04-13T05:14:35.160Z,12.41
2019-04-13T05:17:03.686Z,12.40
2019-04-13T05:19:32.220Z,12.26
2019-04-13T05:22:00.771Z,12.20
2019-04-13T05:24:29.323Z,12.20
2019-04-13T05:26:57.968Z,12.15
2019-04-13T05:29:26.503Z,12.19
2019-04-13T05:31:55.044Z,12.22
2019-04-13T05:34:23.626Z,12.23
2019-04-13T05:36:52.177Z,12.15
2019-04-13T05:39:20.692Z,12.13
2019-04-13T05:41:49.234Z,12.18
2019-04-13T05:44:17.901Z,12.07
2019-04-13T05:46:48.806Z,12.15
2019-04-13T05:49:17.367Z,12.16
2019-04-13T05:51:45.995Z,12.23
2019-04-13T05:54:14.424Z,12.26
2019-04-13T05:56:42.986Z,12.32
2019-04-13T05:59:11.700Z,12.16
2019-04-13T06:01:40.256Z,12.15
2019-04-13T06:04:08.681Z,12.17
2019-04-13T06:06:37.312Z,12.14
2019-04-13T06:09:07.297Z,12.24
2019-04-13T06:11:36.022Z,12.12
2019-04-13T06:14:05.023Z,12.13
2019-04-13T06:16:33.577Z,12.25
2019-04-13T06:19:02.172Z,12.21
2019-04-13T06:21:30.817Z,12.14
2019-04-13T06:23:59.418Z,12.08
2019-04-13T06:26:27.856Z,12.23
2019-04-13T06:28:56.489Z,12.20
2019-04-13T06:31:59.454Z,12.09
2019-04-13T06:34:53.451Z,12.20
2019-04-13T06:37:22.025Z,12.04
2019-04-13T06:39:50.873Z,12.07
2019-04-13T06:42:19.405Z,12.24
2019-04-13T06:44:48.028Z,12.26
2019-04-13T06:47:16.531Z,12.09
2019-04-13T06:49:45.060Z,12.09
2019-04-13T06:52:13.670Z,12.27
2019-04-13T06:54:43.086Z,12.16
2019-04-13T06:57:12.192Z,12.15
2019-04-13T06:59:40.799Z,12.34
2019-04-13T07:02:09.200Z,12.37
2019-04-13T07:04:40.387Z,12.41
2019-04-13T07:07:23.810Z,12.52
2019-04-13T07:09:50.092Z,12.46
2019-04-13T07:12:31.558Z,12.50
2019-04-13T07:14:59.122Z,12.43
2019-04-13T07:17:30.188Z,12.34
2019-04-13T07:19:58.702Z,12.37
2019-04-13T07:22:27.210Z,12.31
2019-04-13T07:24:55.813Z,12.44
2019-04-13T07:27:24.348Z,12.36
2019-04-13T07:29:53.396Z,12.37
2019-04-13T07:32:22.267Z,12.36
2019-04-13T07:34:50.789Z,12.41
2019-04-13T07:37:19.292Z,12.60
2019-04-13T07:39:48.331Z,12.59
2019-04-13T07:42:17.425Z,12.67
2019-04-13T07:44:50.858Z,12.88
2019-04-13T07:47:33.627Z,12.88
2019-04-13T07:50:34.231Z,12.86
2019-04-13T07:53:07.429Z,12.86
2019-04-13T07:55:36.462Z,12.94
2019-04-13T07:58:05.359Z,13.06
2019-04-13T08:00:34.994Z,13.00
2019-04-13T08:03:03.615Z,13.16
2019-04-13T08:05:32.226Z,13.29
2019-04-13T08:08:00.787Z,13.48
2019-04-13T08:10:29.363Z,13.46
2019-04-13T08:12:57.935Z,13.71
2019-04-13T08:15:26.501Z,13.81
2019-04-13T08:17:55.049Z,13.81
2019-04-13T08:20:30.521Z,13.83
2019-04-13T08:22:59.975Z,13.80
2019-04-13T08:25:28.656Z,13.60
2019-04-13T08:27:57.527Z,13.76
2019-04-13T08:30:28.125Z,14.06
2019-04-13T08:32:57.024Z,13.99
2019-04-13T08:35:25.736Z,14.08
2019-04-13T08:38:11.759Z,14.13
2019-04-13T08:40:25.459Z,14.20
2019-04-13T08:42:58.934Z,14.37
2019-04-13T08:45:25.453Z,14.51
2019-04-13T08:47:53.990Z,14.43
2019-04-13T08:50:22.442Z,14.28
2019-04-13T08:52:50.963Z,14.28
2019-04-13T08:55:19.505Z,14.34
2019-04-13T08:57:48.042Z,14.31
2019-04-13T09:00:17.215Z,14.26
2019-04-13T09:02:45.901Z,14.43
2019-04-13T09:05:14.343Z,14.39
2019-04-13T09:07:42.909Z,14.45
2019-04-13T09:10:15.056Z,14.44
2019-04-13T09:12:43.086Z,14.45
2019-04-13T09:15:12.611Z,14.39
2019-04-13T09:17:52.583Z,14.35
2019-04-13T09:20:26.383Z,14.39
2019-04-13T09:23:06.621Z,14.27
2019-04-13T09:25:35.280Z,14.31
2019-04-13T09:28:04.111Z,14.34
2019-04-13T09:30:35.277Z,14.40
2019-04-13T09:33:04.305Z,14.57
2019-04-13T09:35:32.950Z,14.53
2019-04-13T09:38:03.659Z,14.47
2019-04-13T09:40:32.001Z,14.39
2019-04-13T09:43:02.268Z,14.44
2019-04-13T09:45:34.290Z,14.48
2019-04-13T09:48:01.546Z,14.52
2019-04-13T09:50:30.171Z,14.50
2019-04-13T09:52:58.890Z,14.59
2019-04-13T09:55:27.513Z,14.69
2019-04-13T09:57:56.107Z,14.93
2019-04-13T10:00:27.514Z,14.97
2019-04-13T10:02:55.164Z,15.03
2019-04-13T10:05:23.653Z,15.05
2019-04-13T10:07:52.366Z,15.05
2019-04-13T10:10:21.032Z,15.02
2019-04-13T10:13:07.950Z,14.97
2019-04-13T10:16:07.690Z,15.01
2019-04-13T10:18:47.766Z,15.00
2019-04-13T10:21:16.283Z,15.00
2019-04-13T10:23:44.849Z,14.95
2019-04-13T10:26:15.974Z,14.94
2019-04-13T10:28:45.465Z,14.95
2019-04-13T10:31:14.224Z,14.95
2019-04-13T10:33:42.746Z,14.96
2019-04-13T10:36:11.479Z,15.02
2019-04-13T10:38:40.002Z,15.01
2019-04-13T10:41:09.513Z,14.96
2019-04-13T10:43:38.455Z,14.81
2019-04-13T10:46:26.526Z,14.78
2019-04-13T10:49:12.125Z,14.86
2019-04-13T10:51:48.018Z,14.86
2019-04-13T10:54:16.531Z,14.97
2019-04-13T10:56:44.911Z,15.02
2019-04-13T10:59:13.509Z,15.00
2019-04-13T11:01:42.112Z,14.94
2019-04-13T11:04:10.497Z,15.01
2019-04-13T11:06:38.952Z,15.09
2019-04-13T11:09:20.722Z,15.15
2019-04-13T11:11:41.614Z,15.14
2019-04-13T11:14:10.125Z,15.27
2019-04-13T11:16:38.725Z,15.58
2019-04-13T11:19:08.326Z,15.67
2019-04-13T11:21:37.058Z,15.76
2019-04-13T11:24:05.639Z,15.67
2019-04-13T11:26:34.234Z,15.87
2019-04-13T11:29:03.061Z,15.81
2019-04-13T11:31:31.763Z,15.73
2019-04-13T11:34:00.382Z,15.71
2019-04-13T11:36:28.965Z,15.73
2019-04-13T11:38:57.467Z,15.70
2019-04-13T11:42:03.487Z,15.69
2019-04-13T11:44:49.677Z,15.67
2019-04-13T11:47:37.820Z,15.68
2019-04-13T11:50:10.777Z,15.60
2019-04-13T11:52:40.067Z,15.59
2019-04-13T11:55:08.468Z,15.59
2019-04-13T11:57:37.081Z,15.65
2019-04-13T12:00:07.794Z,15.65
2019-04-13T12:02:44.979Z,15.67
2019-04-13T12:05:32.092Z,15.74
2019-04-13T12:08:19.006Z,15.69
2019-04-13T12:11:21.556Z,15.72
2019-04-13T12:13:55.307Z,15.68
2019-04-13T12:16:43.400Z,15.65
2019-04-13T12:19:34.223Z,15.69
2019-04-13T12:22:13.266Z,15.55
2019-04-13T12:24:41.864Z,15.51
2019-04-13T12:27:10.357Z,15.57
2019-04-13T12:29:39.930Z,15.54
2019-04-13T12:32:23.833Z,15.52
2019-04-13T12:34:50.505Z,15.49
2019-04-13T12:37:19.154Z,15.50
2019-04-13T12:40:01.908Z,15.50
2019-04-13T12:42:19.624Z,15.55
2019-04-13T12:44:50.218Z,15.56
2019-04-13T12:47:19.691Z,15.48
2019-04-13T12:49:48.229Z,15.53
2019-04-13T12:52:16.876Z,15.48
2019-04-13T12:54:45.476Z,15.54
2019-04-13T12:57:16.053Z,15.57
2019-04-13T12:59:44.321Z,15.58
2019-04-13T13:02:41.128Z,15.50
2019-04-13T13:05:16.301Z,15.55
2019-04-13T13:07:45.108Z,15.53
2019-04-13T13:10:15.299Z,15.62
2019-04-13T13:12:45.814Z,15.65
2019-04-13T13:15:15.052Z,15.66
2019-04-13T13:17:43.578Z,15.63
2019-04-13T13:20:12.207Z,15.61
2019-04-13T13:22:42.643Z,15.62
2019-04-13T13:25:13.817Z,15.67
2019-04-13T13:27:41.850Z,15.67
2019-04-13T13:30:10.643Z,15.65
2019-04-13T13:32:39.142Z,15.69
2019-04-13T13:35:07.859Z,15.72
2019-04-13T13:37:38.468Z,15.71
2019-04-13T13:40:07.378Z,15.75
2019-04-13T13:42:38.544Z,15.74
2019-04-13T13:45:06.665Z,15.67
2019-04-13T13:47:35.194Z,15.73
2019-04-13T13:50:04.857Z,15.71
2019-04-13T13:52:35.476Z,15.66
2019-04-13T13:55:04.894Z,15.68
2019-04-13T13:57:36.074Z,15.71
2019-04-13T14:00:06.126Z,15.71
2019-04-13T14:02:35.118Z,15.70
2019-04-13T14:05:03.974Z,15.68
2019-04-13T14:07:32.915Z,15.73
2019-04-13T14:10:14.277Z,15.77
2019-04-13T14:12:43.297Z,15.72
2019-04-13T14:15:13.196Z,15.64
2019-04-13T14:17:41.670Z,15.68
2019-04-13T14:20:11.185Z,15.55
2019-04-13T14:22:40.026Z,15.68
2019-04-13T14:25:08.660Z,15.64
2019-04-13T14:27:37.247Z,15.66
2019-04-13T14:30:06.987Z,15.69
2019-04-13T14:32:35.920Z,15.70
2019-04-13T14:35:05.884Z,15.69
2019-04-13T14:37:34.646Z,15.62
2019-04-13T14:40:05.976Z,15.57
2019-04-13T14:42:34.937Z,15.57
2019-04-13T14:45:05.774Z,15.59
2019-04-13T14:47:35.842Z,15.65
2019-04-13T14:50:05.263Z,15.61
2019-04-13T14:52:33.751Z,15.64
2019-04-13T14:55:02.199Z,15.71
2019-04-13T14:57:30.905Z,15.74
2019-04-13T15:00:00.354Z,15.72
2019-04-13T15:02:28.998Z,15.68
2019-04-13T15:04:57.513Z,15.69
2019-04-13T15:07:25.918Z,15.69
2019-04-13T15:09:54.425Z,15.73
2019-04-13T15:12:22.920Z,15.70
2019-04-13T15:14:51.826Z,15.64
2019-04-13T15:17:22.191Z,15.63
2019-04-13T15:20:01.913Z,15.59
2019-04-13T15:22:22.751Z,15.59
2019-04-13T15:24:54.503Z,15.63
2019-04-13T15:27:22.935Z,15.72
2019-04-13T15:29:52.028Z,15.69
2019-04-13T15:32:26.886Z,15.60
2019-04-13T15:34:51.224Z,15.61
2019-04-13T15:37:19.795Z,15.54
2019-04-13T15:39:50.069Z,15.59
2019-04-13T15:42:25.730Z,15.51
2019-04-13T15:44:51.384Z,15.55
2019-04-13T15:47:23.913Z,15.56
2019-04-13T15:49:50.524Z,15.53
2019-04-13T15:52:19.914Z,15.48
2019-04-13T15:54:49.429Z,15.53
2019-04-13T15:57:18.151Z,15.53
2019-04-13T15:59:46.669Z,15.33
2019-04-13T16:02:15.287Z,15.24
2019-04-13T16:04:45.627Z,15.14
2019-04-13T16:07:14.476Z,15.02
2019-04-13T16:10:01.926Z,15.02
2019-04-13T16:12:38.539Z,14.94
2019-04-13T16:15:08.457Z,14.91
2019-04-13T16:17:37.997Z,14.74
2019-04-13T16:20:07.616Z,14.76
2019-04-13T16:22:36.596Z,14.64
2019-04-13T16:25:05.437Z,14.80
2019-04-13T16:27:40.343Z,14.67
2019-04-13T16:30:28.298Z,14.72
2019-04-13T16:33:10.996Z,14.73
2019-04-13T16:35:53.831Z,14.83
2019-04-13T16:38:22.306Z,14.78
2019-04-13T16:40:50.730Z,14.52
2019-04-13T16:43:22.106Z,14.47
2019-04-13T16:46:13.588Z,14.54
2019-04-13T16:49:08.705Z,14.64
2019-04-13T16:52:05.684Z,14.44
2019-04-13T16:54:55.260Z,14.43
2019-04-13T16:57:31.285Z,14.37
2019-04-13T17:00:18.721Z,14.42
2019-04-13T17:02:58.908Z,14.10
2019-04-13T17:05:29.058Z,14.02
2019-04-13T17:07:59.035Z,13.87
2019-04-13T17:10:27.670Z,13.87
2019-04-13T17:12:56.862Z,13.75
2019-04-13T17:15:27.021Z,13.71
2019-04-13T17:17:55.575Z,13.71
2019-04-13T17:20:43.522Z,13.86
2019-04-13T17:23:50.008Z,13.84
2019-04-13T17:26:54.373Z,13.69
2019-04-13T17:29:54.879Z,13.36
2019-04-13T17:32:31.481Z,13.05
2019-04-13T17:35:07.617Z,12.82
2019-04-13T17:37:36.149Z,12.90
2019-04-13T17:40:06.253Z,12.78
2019-04-13T17:42:57.433Z,12.85
2019-04-13T17:45:54.875Z,12.94
2019-04-13T17:48:46.345Z,13.03
2019-04-13T17:51:33.185Z,12.75
2019-04-13T17:54:06.454Z,12.89
2019-04-13T17:56:36.248Z,13.09
2019-04-13T17:59:27.863Z,12.90
2019-04-13T18:02:18.081Z,13.02
2019-04-13T18:05:09.239Z,12.71
2019-04-13T18:07:57.385Z,12.75
2019-04-13T18:10:40.147Z,12.91
2019-04-13T18:16:25.705Z,12.73
2019-04-13T18:19:00.455Z,12.88
2019-04-13T18:21:29.002Z,12.87
2019-04-13T18:23:57.525Z,12.59
2019-04-13T18:26:27.064Z,12.69
2019-04-13T18:28:56.583Z,12.48
2019-04-13T18:31:25.206Z,12.59
2019-04-13T18:33:53.692Z,12.52
2019-04-13T18:36:23.256Z,12.63
2019-04-13T18:38:52.182Z,12.51
2019-04-13T18:41:20.712Z,12.51
2019-04-13T18:43:49.742Z,12.49
2019-04-13T18:46:19.127Z,12.58
2019-04-13T18:48:48.918Z,12.68
2019-04-13T18:51:17.528Z,12.71
2019-04-13T18:53:46.581Z,12.51
2019-04-13T18:56:15.287Z,12.41
2019-04-13T18:58:43.819Z,12.38
2019-04-13T19:01:12.343Z,12.47
2019-04-13T19:03:40.881Z,12.31
2019-04-13T19:06:09.425Z,12.33
2019-04-13T19:08:37.955Z,12.45
2019-04-13T19:11:06.616Z,12.60
2019-04-13T19:13:35.239Z,12.46
2019-04-13T19:16:03.749Z,12.52
2019-04-13T19:18:32.483Z,12.46
2019-04-13T19:21:00.999Z,12.28
2019-04-13T19:23:29.542Z,12.41
2019-04-13T19:25:58.154Z,12.32
2019-04-13T19:28:26.813Z,12.25
2019-04-13T19:30:55.415Z,12.35
2019-04-13T19:33:24.038Z,12.42
2019-04-13T19:35:52.584Z,12.50
2019-04-13T19:38:21.114Z,12.47
2019-04-13T19:40:49.633Z,12.39
2019-04-13T19:43:18.249Z,12.40
2019-04-13T19:45:47.075Z,12.36
2019-04-13T19:48:15.611Z,12.40
2019-04-13T19:50:44.304Z,12.43
2019-04-13T19:53:38.268Z,12.13
2019-04-13T19:56:10.057Z,12.13
2019-04-13T19:58:39.302Z,12.22
2019-04-13T20:01:07.888Z,12.34
2019-04-13T20:03:36.607Z,12.29
2019-04-13T20:06:17.868Z,12.15
2019-04-13T20:08:35.589Z,12.24
2019-04-13T20:11:04.233Z,12.21
2019-04-13T20:13:45.412Z,12.18
2019-04-13T20:16:03.749Z,12.24
2019-04-13T20:18:32.813Z,12.12
2019-04-13T20:21:01.399Z,12.13
2019-04-13T20:23:29.924Z,12.03
2019-04-13T20:25:59.001Z,12.07
2019-04-13T20:28:28.633Z,12.03
2019-04-13T20:30:58.310Z,12.02
2019-04-13T20:33:28.548Z,12.00
2019-04-13T20:36:05.220Z,12.05
2019-04-13T20:38:28.203Z,12.12
2019-04-13T20:41:08.674Z,11.85
2019-04-13T20:43:48.915Z,11.89
2019-04-13T20:46:08.205Z,12.05
2019-04-13T20:48:37.914Z,11.90
2019-04-13T20:51:06.659Z,11.91
2019-04-13T20:53:35.083Z,11.92
2019-04-13T20:56:03.926Z,11.94
2019-04-13T20:58:33.556Z,11.99
2019-04-13T21:01:02.265Z,11.92
2019-04-13T21:03:32.281Z,11.90
2019-04-13T21:06:00.790Z,11.73
2019-04-13T21:08:30.156Z,11.88
2019-04-13T21:10:58.828Z,11.84
2019-04-13T21:13:27.569Z,11.80
2019-04-13T21:15:56.139Z,11.49
2019-04-13T21:18:25.450Z,11.59
2019-04-13T21:20:55.278Z,11.48
2019-04-13T21:23:23.978Z,11.58
2019-04-13T21:25:53.301Z,11.59
2019-04-13T21:28:23.240Z,11.71
2019-04-13T21:30:53.173Z,11.71
2019-04-13T21:33:22.036Z,11.49
2019-04-13T21:35:51.286Z,11.48
2019-04-13T21:38:21.211Z,11.59
2019-04-13T21:40:51.197Z,11.56
2019-04-13T21:43:20.026Z,11.61
2019-04-13T21:45:49.257Z,11.38
2019-04-13T21:48:17.752Z,11.61
2019-04-13T21:51:11.926Z,11.58
2019-04-13T21:53:50.658Z,11.40
2019-04-13T21:56:19.297Z,11.39
2019-04-13T21:58:49.014Z,11.55
2019-04-13T22:01:41.100Z,11.37
2019-04-13T22:04:10.901Z,11.43
2019-04-13T22:06:40.794Z,11.45
2019-04-13T22:09:11.402Z,11.24
2019-04-13T22:11:40.831Z,11.21
2019-04-13T22:14:15.375Z,11.26
2019-04-13T22:16:39.994Z,11.16
2019-04-13T22:19:09.314Z,11.11
2019-04-13T22:21:39.253Z,11.22
2019-04-13T22:24:09.151Z,11.04
2019-04-13T22:26:38.175Z,10.97
2019-04-13T22:29:18.283Z,10.95
2019-04-13T22:32:09.963Z,11.11
2019-04-13T22:34:54.222Z,11.18
2019-04-13T22:37:23.021Z,10.96
2019-04-13T22:39:51.653Z,10.99
2019-04-13T22:42:20.906Z,10.86
2019-04-13T22:44:57.214Z,11.06
2019-04-13T22:47:21.673Z,10.92
2019-04-13T22:50:09.855Z,10.96
2019-04-13T22:52:56.090Z,10.98
2019-04-13T22:55:34.300Z,10.87
2019-04-13T22:58:03.000Z,10.88
2019-04-13T23:00:36.591Z,10.85
2019-04-13T23:03:13.623Z,10.87
2019-04-13T23:05:43.573Z,10.89
2019-04-13T23:08:12.339Z,10.94
2019-04-13T23:10:42.051Z,10.87
2019-04-13T23:13:10.899Z,11.11
2019-04-13T23:15:42.034Z,10.91
2019-04-13T23:18:10.231Z,10.94
2019-04-13T23:20:38.870Z,10.92
2019-04-13T23:23:07.499Z,10.77
2019-04-13T23:25:36.213Z,10.91
2019-04-13T23:28:05.478Z,10.98
2019-04-13T23:30:35.525Z,10.90
2019-04-13T23:33:04.397Z,10.72
2019-04-13T23:35:32.798Z,10.55
2019-04-13T23:38:02.750Z,11.05
2019-04-13T23:40:31.518Z,10.78
2019-04-13T23:43:01.352Z,10.63
2019-04-13T23:45:35.187Z,10.63
2019-04-13T23:48:02.483Z,10.77
2019-04-13T23:50:31.100Z,10.59
2019-04-13T23:52:59.527Z,10.36
2019-04-13T23:55:57.529Z,10.46
2019-04-13T23:58:49.559Z,10.60
